Time;durP1;ratioP1;P1;durP2;ratioP2;P2;SDS_P1;SDS_P2;PMS_P1;PMS_P2;Temp;Humidity;BMP_temperature;BMP_pressure;BME280_temperature;BME280_humidity;BME280_pressure;Samples;Min_cycle;Max_cycle;Signal;HPM_P1;HPM_P2
2021/11/29 00:00:39;;;;;;;50.48;26.35;;;;;;;1.60;100.00;96488.41;2119579;84;20987;-83
2021/11/29 00:03:42;;;;;;;49.80;24.67;;;;;;;1.62;100.00;96491.12;2124244;84;21569;-83
2021/11/29 00:06:43;;;;;;;50.43;25.05;;;;;;;1.60;100.00;96502.11;2130225;84;22026;-84
2021/11/29 00:09:44;;;;;;;38.53;18.77;;;;;;;1.59;100.00;96510.83;2130507;84;21018;-84
2021/11/29 00:12:45;;;;;;;44.20;21.35;;;;;;;1.55;100.00;96509.56;2130332;83;20948;-84
2021/11/29 00:15:45;;;;;;;40.48;21.65;;;;;;;1.49;100.00;96518.02;2130268;83;20967;-85
2021/11/29 00:18:46;;;;;;;42.13;21.77;;;;;;;1.45;100.00;96527.56;2130213;84;20956;-84
2021/11/29 00:21:47;;;;;;;32.93;16.35;;;;;;;1.39;100.00;96522.63;2130431;84;21510;-85
2021/11/29 00:24:48;;;;;;;40.60;19.40;;;;;;;1.35;100.00;96505.89;2130316;84;20999;-84
2021/11/29 00:27:49;;;;;;;30.82;15.50;;;;;;;1.29;100.00;96501.45;2130575;83;20955;-83
2021/11/29 00:30:51;;;;;;;37.78;21.12;;;;;;;1.22;100.00;96496.19;2130188;84;21038;-83
2021/11/29 00:33:52;;;;;;;41.28;21.52;;;;;;;1.22;100.00;96491.52;2130725;84;21522;-84
2021/11/29 00:36:53;;;;;;;39.80;20.85;;;;;;;1.18;100.00;96488.47;2130424;84;21007;-83
2021/11/29 00:39:54;;;;;;;36.93;17.00;;;;;;;1.14;100.00;96491.90;2130254;84;21093;-83
2021/11/29 00:42:54;;;;;;;33.65;18.60;;;;;;;1.12;100.00;96499.50;2130177;83;20983;-83
2021/11/29 00:45:55;;;;;;;33.58;16.60;;;;;;;1.11;100.00;96502.56;2130305;84;21043;-83
2021/11/29 00:48:56;;;;;;;35.05;18.73;;;;;;;1.10;100.00;96512.56;2130291;84;21002;-83
2021/11/29 00:51:57;;;;;;;29.55;15.35;;;;;;;1.11;100.00;96519.32;2130236;84;21053;-83
2021/11/29 00:54:58;;;;;;;32.55;17.92;;;;;;;1.14;100.00;96526.70;2130212;83;20951;-83
2021/11/29 00:57:59;;;;;;;28.57;15.43;;;;;;;1.14;100.00;96538.30;2130326;84;20952;-83
2021/11/29 01:01:00;;;;;;;32.63;18.30;;;;;;;1.16;100.00;96529.09;2130428;83;20978;-83
2021/11/29 01:04:00;;;;;;;32.48;17.48;;;;;;;1.19;100.00;96531.34;2123778;83;20980;-83
2021/11/29 01:07:01;;;;;;;35.10;18.67;;;;;;;1.22;100.00;96523.75;2117003;84;21079;-83
2021/11/29 01:10:02;;;;;;;31.87;17.15;;;;;;;1.19;100.00;96528.77;2116914;84;21475;-83
2021/11/29 01:13:03;;;;;;;33.65;18.23;;;;;;;1.18;100.00;96528.92;2116863;84;21127;-84
2021/11/29 01:16:04;;;;;;;31.42;17.85;;;;;;;1.18;100.00;96529.72;2116971;84;21514;-83
2021/11/29 01:19:05;;;;;;;30.17;16.82;;;;;;;1.24;100.00;96515.34;2116923;84;20940;-83
2021/11/29 01:22:05;;;;;;;35.58;18.48;;;;;;;1.23;100.00;96508.59;2116929;84;21051;-82
2021/11/29 01:25:06;;;;;;;36.13;17.85;;;;;;;1.21;100.00;96512.63;2117081;84;20948;-82
2021/11/29 01:28:07;;;;;;;35.28;17.87;;;;;;;1.21;100.00;96505.39;2116862;84;21039;-83
2021/11/29 01:31:08;;;;;;;33.98;17.82;;;;;;;1.26;100.00;96504.36;2116942;84;21051;-84
2021/11/29 01:34:09;;;;;;;39.50;20.20;;;;;;;1.26;100.00;96505.66;2117227;84;20945;-83
2021/11/29 01:37:10;;;;;;;36.65;18.32;;;;;;;1.27;100.00;96513.70;2117045;84;20964;-83
2021/11/29 01:40:10;;;;;;;44.67;20.50;;;;;;;1.23;100.00;96517.13;2116897;84;20952;-83
2021/11/29 01:43:11;;;;;;;29.77;15.63;;;;;;;1.23;100.00;96526.14;2117062;84;21106;-82
2021/11/29 01:46:12;;;;;;;31.60;16.17;;;;;;;1.22;100.00;96529.70;2116961;84;21439;-83
2021/11/29 01:49:13;;;;;;;30.02;15.65;;;;;;;1.19;100.00;96534.38;2117167;84;20948;-84
2021/11/29 01:52:14;;;;;;;31.68;17.35;;;;;;;1.16;100.00;96541.98;2116880;84;21010;-83
2021/11/29 01:55:14;;;;;;;37.17;20.20;;;;;;;1.17;100.00;96544.88;2117031;84;20988;-83
2021/11/29 01:58:15;;;;;;;35.58;17.87;;;;;;;1.22;100.00;96545.66;2117023;84;21048;-82
2021/11/29 02:01:16;;;;;;;32.30;18.07;;;;;;;1.26;100.00;96545.12;2116856;84;21024;-83
2021/11/29 02:04:17;;;;;;;29.20;15.68;;;;;;;1.34;100.00;96539.91;2117038;84;20981;-83
2021/11/29 02:07:18;;;;;;;31.80;17.20;;;;;;;1.23;100.00;96531.30;2117057;84;21055;-84
2021/11/29 02:10:19;;;;;;;32.78;17.70;;;;;;;1.18;100.00;96522.47;2116896;84;20980;-83
2021/11/29 02:13:19;;;;;;;32.15;17.02;;;;;;;1.16;100.00;96511.54;2117055;84;21106;-83
2021/11/29 02:16:20;;;;;;;32.65;18.37;;;;;;;1.13;100.00;96509.63;2116880;84;20991;-83
2021/11/29 02:19:21;;;;;;;29.85;17.60;;;;;;;1.13;100.00;96513.50;2116985;84;21041;-83
2021/11/29 02:22:22;;;;;;;30.05;16.20;;;;;;;1.11;100.00;96518.52;2116900;84;21043;-85
2021/11/29 02:25:23;;;;;;;27.55;16.02;;;;;;;1.04;100.00;96520.98;2117055;84;20971;-84
2021/11/29 02:28:23;;;;;;;30.77;17.45;;;;;;;1.03;100.00;96535.33;2116991;84;21059;-84
2021/11/29 02:31:24;;;;;;;29.82;17.35;;;;;;;1.01;100.00;96525.20;2116974;84;20956;-84
2021/11/29 02:34:25;;;;;;;32.33;17.45;;;;;;;1.04;100.00;96528.71;2116875;84;21509;-83
2021/11/29 02:37:26;;;;;;;36.95;19.15;;;;;;;1.08;100.00;96529.16;2117040;84;21004;-85
2021/11/29 02:40:27;;;;;;;31.82;18.05;;;;;;;1.11;100.00;96525.77;2117453;84;21000;-82
2021/11/29 02:43:28;;;;;;;35.58;19.65;;;;;;;1.16;100.00;96525.72;2119465;84;20983;-81
2021/11/29 02:46:30;;;;;;;40.35;21.25;;;;;;;1.21;100.00;96537.12;2117463;84;20956;-84
2021/11/29 02:49:31;;;;;;;40.28;20.92;;;;;;;1.29;100.00;96540.93;2116776;84;21004;-85
2021/11/29 02:52:32;;;;;;;37.50;20.25;;;;;;;1.35;100.00;96545.38;2116942;84;21023;-84
2021/11/29 02:55:32;;;;;;;42.08;22.30;;;;;;;1.31;100.00;96542.04;2116971;84;21262;-84
2021/11/29 02:58:33;;;;;;;35.75;19.70;;;;;;;1.24;100.00;96531.61;2116985;84;20987;-84
2021/11/29 03:01:34;;;;;;;41.98;22.48;;;;;;;1.17;100.00;96544.88;2116840;84;21063;-83
2021/11/29 03:04:35;;;;;;;40.35;21.42;;;;;;;1.17;100.00;96541.50;2122540;84;21505;-84
2021/11/29 03:07:36;;;;;;;43.42;22.22;;;;;;;1.13;100.00;96539.77;2130231;83;21006;-85
2021/11/29 03:10:37;;;;;;;49.25;24.55;;;;;;;1.13;100.00;96526.39;2130074;84;20955;-85
2021/11/29 03:13:37;;;;;;;41.45;22.67;;;;;;;1.11;100.00;96527.05;2130103;83;21102;-84
2021/11/29 03:16:38;;;;;;;34.48;18.82;;;;;;;1.09;100.00;96516.09;2130090;84;21004;-84
2021/11/29 03:19:39;;;;;;;39.73;18.80;;;;;;;1.05;100.00;96522.58;2130298;84;20971;-84
2021/11/29 03:22:40;;;;;;;36.48;20.57;;;;;;;1.00;100.00;96527.92;2129923;83;21014;-83
2021/11/29 03:25:41;;;;;;;48.65;21.60;;;;;;;0.98;100.00;96537.12;2129984;84;21539;-84
2021/11/29 03:28:42;;;;;;;41.77;21.05;;;;;;;0.97;100.00;96540.67;2130184;83;21011;-84
2021/11/29 03:31:43;;;;;;;37.05;19.50;;;;;;;0.93;100.00;96538.63;2130038;84;21501;-83
2021/11/29 03:34:43;;;;;;;39.03;18.00;;;;;;;0.93;100.00;96544.59;2129858;83;21101;-83
2021/11/29 03:37:44;;;;;;;39.10;20.15;;;;;;;0.93;100.00;96542.50;2130152;83;20982;-84
2021/11/29 03:40:45;;;;;;;45.63;21.15;;;;;;;0.88;100.00;96549.92;2130071;83;21050;-85
2021/11/29 03:43:46;;;;;;;42.55;21.33;;;;;;;0.85;100.00;96557.03;2130288;84;21501;-84
2021/11/29 03:46:47;;;;;;;45.58;22.50;;;;;;;0.89;100.00;96551.03;2130201;84;21058;-84
2021/11/29 03:49:49;;;;;;;42.50;20.80;;;;;;;0.98;100.00;96555.66;2130281;84;21590;-83
2021/11/29 03:52:50;;;;;;;38.08;18.77;;;;;;;1.01;100.00;96561.28;2130300;84;21091;-85
2021/11/29 03:55:50;;;;;;;34.58;18.48;;;;;;;1.02;100.00;96551.28;2130379;83;20948;-84
2021/11/29 03:58:51;;;;;;;35.30;18.90;;;;;;;1.01;100.00;96541.95;2130419;83;21066;-84
2021/11/29 04:01:52;;;;;;;39.05;19.17;;;;;;;0.99;100.00;96554.19;2130524;84;21071;-84
2021/11/29 04:04:53;;;;;;;32.95;16.90;;;;;;;1.01;100.00;96553.55;2124171;83;21092;-84
2021/11/29 04:07:54;;;;;;;40.10;19.60;;;;;;;0.96;100.00;96551.96;2117138;84;21003;-84
2021/11/29 04:10:54;;;;;;;30.10;14.35;;;;;;;0.93;100.00;96562.63;2117252;84;21016;-83
2021/11/29 04:13:55;;;;;;;36.70;20.12;;;;;;;0.91;100.00;96561.17;2117317;84;21159;-87
2021/11/29 04:16:56;;;;;;;41.37;20.23;;;;;;;0.93;100.00;96563.91;2117112;84;21144;-85
2021/11/29 04:19:57;;;;;;;38.08;21.15;;;;;;;0.99;100.00;96561.12;2117153;84;21035;-85
2021/11/29 04:22:58;;;;;;;31.15;16.52;;;;;;;1.01;100.00;96553.55;2117111;84;20991;-86
2021/11/29 04:26:01;;;;;;;38.80;19.32;;;;;;;0.99;100.00;96556.77;2116886;84;21459;-85
2021/11/29 04:29:07;;;;;;;30.70;17.77;;;;;;;1.00;100.00;96558.36;2117064;84;21027;-85
2021/11/29 04:32:04;;;;;;;33.53;17.17;;;;;;;1.01;100.00;96554.04;2116236;84;21043;-84
2021/11/29 04:35:05;;;;;;;30.95;18.23;;;;;;;1.01;100.00;96563.06;2117011;84;21504;-85
2021/11/29 04:38:05;;;;;;;29.18;16.62;;;;;;;1.04;100.00;96578.17;2117192;84;21023;-84
2021/11/29 04:41:06;;;;;;;25.20;13.58;;;;;;;1.03;100.00;96578.66;2117086;84;21051;-85
2021/11/29 04:44:07;;;;;;;29.90;16.48;;;;;;;0.99;100.00;96579.95;2117150;84;20999;-84
2021/11/29 04:47:08;;;;;;;30.08;16.80;;;;;;;1.03;100.00;96575.28;2117469;84;21543;-85
2021/11/29 04:50:09;;;;;;;31.48;17.65;;;;;;;1.01;100.00;96570.30;2117020;84;21056;-85
2021/11/29 04:53:09;;;;;;;32.63;17.80;;;;;;;1.04;100.00;96569.95;2117170;84;21007;-84
2021/11/29 04:56:10;;;;;;;29.92;16.17;;;;;;;1.07;100.00;96559.29;2117267;84;20939;-85
2021/11/29 04:59:11;;;;;;;30.50;17.55;;;;;;;1.10;100.00;96560.73;2117242;84;20979;-85
2021/11/29 05:02:12;;;;;;;35.63;16.55;;;;;;;1.14;100.00;96557.63;2117163;84;21035;-84
2021/11/29 05:05:13;;;;;;;33.23;18.35;;;;;;;1.16;100.00;96568.25;2101682;83;21033;-86
2021/11/29 05:08:14;;;;;;;37.60;19.02;;;;;;;1.16;100.00;96556.66;2084123;85;21073;-83
2021/11/29 05:11:14;;;;;;;35.52;18.07;;;;;;;1.14;100.00;96551.19;2084015;85;21057;-85
2021/11/29 05:14:15;;;;;;;31.02;17.25;;;;;;;1.19;100.00;96551.14;2084288;85;21371;-85
2021/11/29 05:17:16;;;;;;;33.88;17.57;;;;;;;1.20;100.00;96551.00;2084060;85;21567;-85
2021/11/29 05:20:17;;;;;;;34.95;18.10;;;;;;;1.19;100.00;96558.42;2084004;85;21046;-85
2021/11/29 05:23:17;;;;;;;39.65;19.95;;;;;;;1.21;100.00;96569.35;2085037;85;21560;-82
2021/11/29 05:26:19;;;;;;;45.83;21.70;;;;;;;1.24;100.00;96569.48;2087299;85;21034;-83
2021/11/29 05:29:20;;;;;;;34.43;19.10;;;;;;;1.26;100.00;96581.70;2084631;85;21604;-84
2021/11/29 05:32:20;;;;;;;26.90;13.48;;;;;;;1.25;100.00;96580.11;2084143;85;21029;-85
2021/11/29 05:35:21;;;;;;;35.98;20.10;;;;;;;1.19;100.00;96574.34;2084117;85;21733;-85
2021/11/29 05:38:22;;;;;;;33.95;19.07;;;;;;;1.15;100.00;96576.48;2083991;85;21109;-85
2021/11/29 05:41:23;;;;;;;26.87;14.55;;;;;;;1.16;100.00;96572.13;2084244;85;21001;-85
2021/11/29 05:44:23;;;;;;;35.40;18.12;;;;;;;1.18;100.00;96576.13;2084482;85;21012;-84
2021/11/29 05:47:24;;;;;;;37.73;18.80;;;;;;;1.22;100.00;96581.27;2085654;85;21037;-86
2021/11/29 05:50:26;;;;;;;36.15;18.75;;;;;;;1.23;100.00;96585.44;2084987;85;21077;-85
2021/11/29 05:53:26;;;;;;;32.98;18.60;;;;;;;1.19;100.00;96598.83;2084154;85;21497;-85
2021/11/29 05:56:27;;;;;;;34.50;20.88;;;;;;;1.24;100.00;96601.71;2084091;85;21072;-85
2021/11/29 05:59:28;;;;;;;31.27;15.20;;;;;;;1.24;100.00;96598.64;2084193;85;21005;-84
2021/11/29 06:02:29;;;;;;;29.98;17.87;;;;;;;1.21;100.00;96595.63;2083961;85;20958;-85
2021/11/29 06:05:30;;;;;;;33.33;18.62;;;;;;;1.22;100.00;96606.25;2083704;83;21567;-84
2021/11/29 06:08:30;;;;;;;34.73;19.32;;;;;;;1.23;100.00;96608.64;2083882;85;21018;-86
2021/11/29 06:11:31;;;;;;;36.60;20.82;;;;;;;1.24;100.00;96614.60;2084300;85;21036;-86
2021/11/29 06:14:32;;;;;;;38.08;20.72;;;;;;;1.29;100.00;96621.34;2083774;85;21047;-84
2021/11/29 06:17:33;;;;;;;33.90;19.17;;;;;;;1.27;100.00;96620.70;2084007;85;22025;-85
2021/11/29 06:20:34;;;;;;;37.88;20.12;;;;;;;1.27;100.00;96632.30;2083891;85;21064;-85
2021/11/29 06:23:36;;;;;;;36.95;18.95;;;;;;;1.29;100.00;96631.17;2083902;85;21545;-86
2021/11/29 06:26:37;;;;;;;40.83;21.20;;;;;;;1.29;100.00;96629.08;2084051;85;21057;-85
2021/11/29 06:29:38;;;;;;;35.88;19.48;;;;;;;1.25;100.00;96625.23;2083775;85;21088;-85
2021/11/29 06:32:39;;;;;;;39.83;20.25;;;;;;;1.26;100.00;96638.43;2083828;85;21002;-85
2021/11/29 06:35:39;;;;;;;42.73;20.45;;;;;;;1.26;100.00;96631.50;2083738;85;21000;-85
2021/11/29 06:38:40;;;;;;;40.23;21.12;;;;;;;1.27;100.00;96645.98;2083799;85;21534;-85
2021/11/29 06:41:41;;;;;;;41.55;23.75;;;;;;;1.24;100.00;96637.31;2083868;85;21329;-85
2021/11/29 06:44:42;;;;;;;44.73;22.80;;;;;;;1.24;100.00;96650.21;2083733;85;21005;-84
2021/11/29 06:47:43;;;;;;;42.33;20.50;;;;;;;1.29;100.00;96657.45;2083887;85;21045;-85
2021/11/29 06:50:43;;;;;;;43.80;22.10;;;;;;;1.30;100.00;96657.76;2083933;85;21120;-85
2021/11/29 06:53:44;;;;;;;42.10;22.10;;;;;;;1.26;100.00;96669.37;2084697;85;20954;-85
2021/11/29 06:56:45;;;;;;;34.98;17.25;;;;;;;1.24;100.00;96675.99;2084078;85;21069;-86
2021/11/29 06:59:46;;;;;;;40.70;20.20;;;;;;;1.25;100.00;96679.38;2084019;85;20997;-85
2021/11/29 07:02:47;;;;;;;38.88;19.62;;;;;;;1.20;100.00;96686.34;2083888;85;21092;-85
2021/11/29 07:05:50;;;;;;;42.60;21.57;;;;;;;1.18;100.00;96695.20;2099996;83;21012;-85
2021/11/29 07:08:51;;;;;;;33.98;18.37;;;;;;;1.16;100.00;96688.13;2116856;84;21012;-86
2021/11/29 07:11:51;;;;;;;37.88;21.23;;;;;;;1.16;100.00;96698.44;2117264;84;21039;-84
2021/11/29 07:14:52;;;;;;;37.78;20.62;;;;;;;1.17;100.00;96689.23;2117176;84;21483;-86
2021/11/29 07:17:53;;;;;;;35.65;19.48;;;;;;;1.16;100.00;96682.97;2117220;84;21063;-85
2021/11/29 07:20:55;;;;;;;36.77;19.05;;;;;;;1.13;100.00;96681.54;2117363;84;21489;-86
2021/11/29 07:23:56;;;;;;;36.08;19.73;;;;;;;1.13;100.00;96683.63;2117318;84;21023;-86
2021/11/29 07:26:57;;;;;;;37.28;19.82;;;;;;;1.11;100.00;96679.14;2117381;84;21443;-86
2021/11/29 07:29:58;;;;;;;33.95;18.20;;;;;;;1.09;100.00;96671.23;2116985;84;21023;-86
2021/11/29 07:32:58;;;;;;;29.80;17.20;;;;;;;1.09;100.00;96688.79;2117010;84;21052;-87
2021/11/29 07:35:59;;;;;;;31.97;18.32;;;;;;;1.08;100.00;96685.09;2117578;84;20976;-87
2021/11/29 07:39:00;;;;;;;39.63;20.23;;;;;;;1.08;100.00;96692.34;2117181;84;20952;-86
2021/11/29 07:42:01;;;;;;;40.70;21.17;;;;;;;1.08;100.00;96682.03;2117157;84;21036;-86
2021/11/29 07:45:02;;;;;;;36.28;19.25;;;;;;;1.08;100.00;96691.05;2116969;84;21079;-86
2021/11/29 07:48:02;;;;;;;37.20;20.95;;;;;;;1.06;100.00;96689.62;2117139;84;21408;-85
2021/11/29 07:51:03;;;;;;;48.95;23.62;;;;;;;1.02;100.00;96699.48;2117938;84;21346;-87
2021/11/29 07:54:04;;;;;;;44.30;20.75;;;;;;;1.00;100.00;96698.82;2117435;84;20994;-85
2021/11/29 07:57:05;;;;;;;40.52;20.02;;;;;;;0.98;100.00;96704.64;2117238;84;21585;-86
2021/11/29 08:00:06;;;;;;;47.45;21.87;;;;;;;0.98;100.00;96705.12;2117109;84;21043;-85
2021/11/29 08:03:07;;;;;;;41.55;20.43;;;;;;;0.96;100.00;96708.36;2117119;84;20983;-85
2021/11/29 08:06:08;;;;;;;45.58;21.55;;;;;;;0.93;100.00;96720.30;2117874;84;21063;-83
2021/11/29 08:09:08;;;;;;;43.63;21.05;;;;;;;0.93;100.00;96716.44;2118893;84;21495;-85
2021/11/29 08:12:09;;;;;;;54.58;24.92;;;;;;;0.94;100.00;96717.55;2117045;84;21063;-84
2021/11/29 08:15:10;;;;;;;44.05;19.55;;;;;;;0.94;100.00;96713.69;2116794;84;21050;-85
2021/11/29 08:18:11;;;;;;;57.53;26.65;;;;;;;0.96;100.00;96719.95;2117061;84;21439;-85
2021/11/29 08:21:12;;;;;;;43.28;22.00;;;;;;;0.96;100.00;96716.89;2116936;84;21051;-85
2021/11/29 08:24:12;;;;;;;60.88;29.05;;;;;;;0.99;100.00;96726.86;2116753;84;21008;-85
2021/11/29 08:27:13;;;;;;;48.90;22.73;;;;;;;1.02;100.00;96721.88;2116860;84;21498;-84
2021/11/29 08:30:14;;;;;;;53.90;26.15;;;;;;;1.04;100.00;96729.75;2116972;84;21079;-84
2021/11/29 08:33:15;;;;;;;57.43;26.10;;;;;;;1.03;100.00;96719.12;2116986;84;20936;-85
2021/11/29 08:36:16;;;;;;;56.30;24.72;;;;;;;0.97;100.00;96712.54;2116888;84;21020;-83
2021/11/29 08:39:16;;;;;;;45.03;22.95;;;;;;;0.98;100.00;96718.81;2117164;84;21068;-88
2021/11/29 08:42:17;;;;;;;47.05;21.33;;;;;;;0.96;100.00;96711.73;2117177;84;20979;-85
2021/11/29 08:45:18;;;;;;;48.58;22.70;;;;;;;0.97;100.00;96706.09;2117078;84;21043;-86
2021/11/29 08:48:19;;;;;;;50.88;23.85;;;;;;;0.96;100.00;96715.60;2117043;84;20996;-86
2021/11/29 08:51:20;;;;;;;55.75;25.02;;;;;;;0.93;100.00;96698.40;2116968;84;21098;-84
2021/11/29 08:54:20;;;;;;;56.23;25.97;;;;;;;0.95;100.00;96712.71;2117099;84;21518;-85
2021/11/29 08:57:21;;;;;;;48.42;22.93;;;;;;;0.99;100.00;96711.39;2116833;84;21015;-85
2021/11/29 09:00:22;;;;;;;47.20;22.07;;;;;;;1.01;100.00;96719.78;2116868;84;20983;-85
2021/11/29 09:03:23;;;;;;;46.28;22.95;;;;;;;1.03;100.00;96705.44;2116998;84;21031;-84
2021/11/29 09:06:24;;;;;;;49.48;24.25;;;;;;;1.04;100.00;96713.00;2122773;83;21589;-84
2021/11/29 09:09:25;;;;;;;51.33;24.98;;;;;;;1.05;100.00;96718.47;2105504;84;21003;-85
2021/11/29 09:12:25;;;;;;;49.63;22.50;;;;;;;1.10;100.00;96728.28;2130174;84;21090;-85
2021/11/29 09:15:26;;;;;;;46.37;22.07;;;;;;;1.11;100.00;96716.52;2130184;83;21008;-89
2021/11/29 09:18:27;;;;;;;52.23;24.45;;;;;;;1.14;100.00;96723.09;2130916;83;21014;-87
2021/11/29 09:21:28;;;;;;;31.93;17.12;;;;;;;1.19;100.00;96725.16;2130276;83;21008;-87
2021/11/29 09:24:29;;;;;;;44.98;21.30;;;;;;;1.21;100.00;96729.68;2131220;84;20944;-88
2021/11/29 09:27:30;;;;;;;38.88;20.05;;;;;;;1.18;100.00;96730.00;2131220;83;21010;-85
2021/11/29 09:30:30;;;;;;;45.08;20.37;;;;;;;1.13;100.00;96730.52;2130145;83;21503;-85
2021/11/29 09:33:31;;;;;;;43.42;21.80;;;;;;;1.10;100.00;96721.84;2130112;83;21010;-85
2021/11/29 09:36:33;;;;;;;37.23;19.32;;;;;;;1.11;100.00;96718.29;2130166;84;21115;-91
2021/11/29 09:39:34;;;;;;;43.17;21.57;;;;;;;1.11;100.00;96728.11;2130175;83;21569;-86
2021/11/29 09:42:35;;;;;;;43.13;21.65;;;;;;;1.14;100.00;96720.03;2130184;84;21027;-85
2021/11/29 09:45:35;;;;;;;39.65;20.72;;;;;;;1.20;100.00;96722.92;2129885;83;21022;-86
2021/11/29 09:48:36;;;;;;;38.53;19.82;;;;;;;1.24;100.00;96726.75;2129929;84;21055;-87
2021/11/29 09:51:37;;;;;;;39.20;20.00;;;;;;;1.24;100.00;96732.72;2130064;83;21585;-86
2021/11/29 09:54:38;;;;;;;37.78;20.02;;;;;;;1.27;100.00;96717.38;2130165;83;21098;-86
2021/11/29 09:57:39;;;;;;;37.73;18.85;;;;;;;1.28;100.00;96730.59;2130299;83;20956;-85
2021/11/29 10:00:40;;;;;;;32.38;16.57;;;;;;;1.24;100.00;96733.20;2130148;84;21060;-85
2021/11/29 10:03:41;;;;;;;39.80;19.67;;;;;;;1.24;100.00;96739.16;2130267;84;21485;-85
2021/11/29 10:06:43;;;;;;;38.15;21.73;;;;;;;1.28;100.00;96740.44;2129959;84;21012;-85
2021/11/29 10:09:44;;;;;;;36.35;19.35;;;;;;;1.31;100.00;96736.23;2130127;84;20998;-86
2021/11/29 10:12:44;;;;;;;30.45;16.55;;;;;;;1.32;100.00;96740.90;2130147;83;20975;-85
2021/11/29 10:15:46;;;;;;;35.43;18.80;;;;;;;1.33;100.00;96735.56;2130172;83;20986;-87
2021/11/29 10:18:49;;;;;;;35.55;18.23;;;;;;;1.32;100.00;96740.90;2130027;84;21012;-88
2021/11/29 10:21:49;;;;;;;33.65;20.32;;;;;;;1.34;100.00;96747.97;2130323;84;21006;-86
2021/11/29 10:24:50;;;;;;;35.60;18.92;;;;;;;1.34;100.00;96741.03;2130086;84;21059;-84
2021/11/29 10:27:51;;;;;;;33.80;19.50;;;;;;;1.30;100.00;96750.58;2130152;84;20959;-82
2021/11/29 10:30:52;;;;;;;40.88;20.70;;;;;;;1.30;100.00;96751.38;2130288;84;20994;-82
2021/11/29 10:33:53;;;;;;;34.13;19.02;;;;;;;1.31;100.00;96749.61;2130180;84;21051;-83
2021/11/29 10:36:54;;;;;;;32.65;17.65;;;;;;;1.34;100.00;96762.16;2130128;83;21027;-83
2021/11/29 10:39:54;;;;;;;36.33;19.60;;;;;;;1.36;100.00;96758.91;2130696;84;20999;-84
2021/11/29 10:42:55;;;;;;;29.85;16.73;;;;;;;1.35;100.00;96755.53;2130208;83;20991;-82
2021/11/29 10:45:56;;;;;;;33.08;19.92;;;;;;;1.36;100.00;96751.98;2130195;84;21022;-87
2021/11/29 10:48:57;;;;;;;27.45;16.50;;;;;;;1.37;100.00;96753.61;2132172;84;20928;-85
2021/11/29 10:51:58;;;;;;;32.75;17.92;;;;;;;1.39;100.00;96743.12;2132273;83;21074;-83
2021/11/29 10:54:59;;;;;;;33.48;18.75;;;;;;;1.45;100.00;96759.67;2130487;83;20928;-83
2021/11/29 10:57:59;;;;;;;29.95;16.62;;;;;;;1.45;100.00;96754.52;2130458;83;20971;-82
2021/11/29 11:01:00;;;;;;;26.68;15.43;;;;;;;1.45;100.00;96761.77;2130207;83;20961;-83
2021/11/29 11:04:01;;;;;;;29.67;17.62;;;;;;;1.42;100.00;96765.50;2130548;84;21071;-82
2021/11/29 11:07:02;;;;;;;28.95;17.82;;;;;;;1.39;100.00;96760.69;2123851;83;21023;-82
2021/11/29 11:10:03;;;;;;;22.45;12.68;;;;;;;1.46;100.00;96749.67;2117277;84;20952;-82
2021/11/29 11:13:05;;;;;;;23.90;14.90;;;;;;;1.47;100.00;96756.47;2117101;84;20983;-82
2021/11/29 11:16:06;;;;;;;24.43;15.58;;;;;;;1.45;100.00;96760.48;2117166;84;21535;-81
2021/11/29 11:19:06;;;;;;;15.88;11.85;;;;;;;1.47;100.00;96768.87;2117127;84;20980;-81
2021/11/29 11:22:07;;;;;;;17.65;13.32;;;;;;;1.43;100.00;96770.17;2117118;84;21031;-81
2021/11/29 11:25:08;;;;;;;17.57;11.33;;;;;;;1.41;100.00;96769.54;2117105;84;21016;-82
2021/11/29 11:28:09;;;;;;;22.67;13.95;;;;;;;1.39;100.00;96762.47;2117188;84;20980;-82
2021/11/29 11:31:10;;;;;;;22.70;13.65;;;;;;;1.35;100.00;96767.63;2117610;84;21506;-82
2021/11/29 11:34:11;;;;;;;20.80;13.80;;;;;;;1.35;100.00;96768.91;2118142;84;20952;-81
2021/11/29 11:37:12;;;;;;;22.05;13.93;;;;;;;1.37;100.00;96763.92;2117437;84;20999;-82
2021/11/29 11:40:13;;;;;;;18.48;11.97;;;;;;;1.41;100.00;96769.05;2117305;84;21003;-81
2021/11/29 11:43:14;;;;;;;14.10;11.35;;;;;;;1.41;100.00;96775.50;2116978;84;20990;-82
2021/11/29 11:46:14;;;;;;;17.37;11.35;;;;;;;1.42;100.00;96771.95;2116918;84;21013;-82
2021/11/29 11:49:15;;;;;;;15.72;10.85;;;;;;;1.44;100.00;96778.22;2117192;84;20999;-82
2021/11/29 11:52:16;;;;;;;14.65;10.70;;;;;;;1.47;100.00;96773.23;2116954;84;21048;-81
2021/11/29 11:55:17;;;;;;;13.70;10.18;;;;;;;1.47;100.00;96768.87;2117298;84;22075;-82
2021/11/29 11:58:18;;;;;;;12.25;9.15;;;;;;;1.48;100.00;96766.61;2117264;84;20992;-81
2021/11/29 12:01:19;;;;;;;13.78;10.45;;;;;;;1.48;100.00;96775.63;2117076;84;20952;-82
2021/11/29 12:04:19;;;;;;;17.40;12.68;;;;;;;1.50;100.00;96777.55;2117261;84;20979;-82
2021/11/29 12:07:20;;;;;;;14.87;10.28;;;;;;;1.51;100.00;96784.31;2100949;83;20970;-82
2021/11/29 12:10:21;;;;;;;14.60;10.03;;;;;;;1.52;100.00;96779.47;2084100;85;21370;-83
2021/11/29 12:13:24;;;;;;;14.05;9.90;;;;;;;1.51;100.00;96772.70;2084065;85;21021;-83
2021/11/29 12:16:25;;;;;;;12.18;8.65;;;;;;;1.52;100.00;96777.37;2084197;85;21057;-83
2021/11/29 12:19:26;;;;;;;14.80;9.30;;;;;;;1.52;100.00;96776.09;2084126;85;21056;-85
2021/11/29 12:22:30;;;;;;;13.18;9.45;;;;;;;1.48;100.00;96777.41;2083852;85;21160;-81
2021/11/29 12:25:31;;;;;;;13.53;10.00;;;;;;;1.45;100.00;96779.02;2083701;85;21092;-81
2021/11/29 12:28:34;;;;;;;11.35;9.28;;;;;;;1.45;100.00;96786.27;2083906;85;21073;-81
2021/11/29 12:31:38;;;;;;;10.30;8.68;;;;;;;1.49;100.00;96784.17;2084187;85;21476;-81
2021/11/29 12:34:38;;;;;;;9.35;7.78;;;;;;;1.52;100.00;96793.66;2083817;85;21065;-82
2021/11/29 12:37:40;;;;;;;12.33;10.03;;;;;;;1.53;100.00;96799.13;2084067;85;21040;-81
2021/11/29 12:40:41;;;;;;;14.00;9.58;;;;;;;1.55;100.00;96798.95;2083972;85;21038;-81
2021/11/29 12:43:42;;;;;;;13.05;8.80;;;;;;;1.52;100.00;96799.30;2084197;85;21516;-82
2021/11/29 12:46:43;;;;;;;13.38;10.10;;;;;;;1.49;100.00;96817.22;2083948;85;21544;-83
2021/11/29 12:49:44;;;;;;;14.80;11.10;;;;;;;1.45;100.00;96803.03;2083870;85;21020;-83
2021/11/29 12:52:46;;;;;;;16.25;10.35;;;;;;;1.41;100.00;96816.77;2083997;85;21015;-83
2021/11/29 12:55:47;;;;;;;13.32;8.83;;;;;;;1.35;100.00;96812.27;2084043;85;21046;-80
2021/11/29 12:58:48;;;;;;;17.92;10.98;;;;;;;1.34;100.00;96817.59;2084032;85;21093;-81
2021/11/29 13:01:50;;;;;;;17.55;11.88;;;;;;;1.32;100.00;96827.28;2084192;85;21468;-82
2021/11/29 13:04:51;;;;;;;14.38;10.10;;;;;;;1.30;100.00;96831.81;2084201;85;21058;-81
2021/11/29 13:07:52;;;;;;;15.80;10.78;;;;;;;1.30;100.00;96838.25;2102975;82;21007;-81
2021/11/29 13:10:52;;;;;;;19.35;10.88;;;;;;;1.30;100.00;96833.90;2117037;84;21052;-82
2021/11/29 13:13:53;;;;;;;17.15;10.45;;;;;;;1.29;100.00;96837.94;2117096;84;21546;-82
2021/11/29 13:16:56;;;;;;;15.93;11.40;;;;;;;1.27;100.00;96838.08;2117046;84;20957;-81
2021/11/29 13:19:59;;;;;;;14.78;10.05;;;;;;;1.24;100.00;96837.13;2116926;84;21040;-81
2021/11/29 13:22:59;;;;;;;17.85;12.03;;;;;;;1.23;100.00;96839.39;2116861;84;21075;-82
2021/11/29 13:26:00;;;;;;;19.40;11.90;;;;;;;1.22;100.00;96844.23;2116918;84;21542;-81
2021/11/29 13:29:01;;;;;;;19.90;13.98;;;;;;;1.24;100.00;96842.29;2117000;84;20987;-82
2021/11/29 13:32:02;;;;;;;19.77;13.62;;;;;;;1.24;100.00;96854.38;2117277;84;20968;-82
2021/11/29 13:35:03;;;;;;;21.33;13.13;;;;;;;1.25;100.00;96858.56;2116779;84;21534;-83
2021/11/29 13:38:04;;;;;;;25.15;15.78;;;;;;;1.23;100.00;96857.45;2116790;84;20980;-83
2021/11/29 13:41:04;;;;;;;26.15;14.75;;;;;;;1.25;100.00;96867.10;2116946;84;21004;-82
2021/11/29 13:44:05;;;;;;;20.02;14.70;;;;;;;1.22;100.00;96861.48;2116981;84;21019;-82
2021/11/29 13:47:07;;;;;;;27.25;16.40;;;;;;;1.16;100.00;96877.12;2116965;84;20984;-81
2021/11/29 13:50:08;;;;;;;29.82;18.00;;;;;;;1.13;100.00;96883.41;2116984;84;21540;-82